sensor_id;sensor_type;location;lat;lon;timestamp;P1;durP1;ratioP1;P2;durP2;ratioP2
6987;SDS011;3534;49.960;8.018;2022-08-01T00:01:44;1.30;;;1.00;;
6987;SDS011;3534;49.960;8.018;2022-08-01T00:04:10;1.33;;;0.90;;
6987;SDS011;3534;49.960;8.018;2022-08-01T00:06:37;1.97;;;0.90;;
6987;SDS011;3534;49.960;8.018;2022-08-01T00:09:04;1.40;;;1.10;;
6987;SDS011;3534;49.960;8.018;2022-08-01T00:11:32;1.87;;;1.10;;
6987;SDS011;3534;49.960;8.018;2022-08-01T00:13:58;1.43;;;1.07;;
6987;SDS011;3534;49.960;8.018;2022-08-01T00:16:25;0.90;;;0.77;;
6987;SDS011;3534;49.960;8.018;2022-08-01T00:18:52;1.40;;;1.10;;
6987;SDS011;3534;49.960;8.018;2022-08-01T00:21:20;1.07;;;0.90;;
6987;SDS011;3534;49.960;8.018;2022-08-01T00:23:47;2.60;;;0.80;;
6987;SDS011;3534;49.960;8.018;2022-08-01T00:26:14;1.53;;;1.07;;
6987;SDS011;3534;49.960;8.018;2022-08-01T00:28:42;2.00;;;1.30;;
6987;SDS011;3534;49.960;8.018;2022-08-01T00:31:08;1.50;;;0.80;;
6987;SDS011;3534;49.960;8.018;2022-08-01T00:33:35;2.47;;;0.83;;
6987;SDS011;3534;49.960;8.018;2022-08-01T00:36:02;2.93;;;0.90;;
6987;SDS011;3534;49.960;8.018;2022-08-01T00:38:29;1.00;;;0.80;;
6987;SDS011;3534;49.960;8.018;2022-08-01T00:40:56;1.60;;;1.10;;
6987;SDS011;3534;49.960;8.018;2022-08-01T00:43:23;1.10;;;1.00;;
6987;SDS011;3534;49.960;8.018;2022-08-01T00:45:51;1.30;;;1.07;;
6987;SDS011;3534;49.960;8.018;2022-08-01T00:48:17;1.73;;;1.10;;
6987;SDS011;3534;49.960;8.018;2022-08-01T00:50:44;1.50;;;1.10;;
6987;SDS011;3534;49.960;8.018;2022-08-01T00:53:11;1.77;;;1.20;;
6987;SDS011;3534;49.960;8.018;2022-08-01T00:55:38;2.70;;;1.10;;
6987;SDS011;3534;49.960;8.018;2022-08-01T00:58:05;1.13;;;1.03;;
6987;SDS011;3534;49.960;8.018;2022-08-01T01:00:32;3.90;;;1.70;;
6987;SDS011;3534;49.960;8.018;2022-08-01T01:03:02;1.13;;;1.03;;
6987;SDS011;3534;49.960;8.018;2022-08-01T01:05:29;1.20;;;1.00;;
6987;SDS011;3534;49.960;8.018;2022-08-01T01:08:07;1.37;;;0.87;;
6987;SDS011;3534;49.960;8.018;2022-08-01T01:10:40;1.63;;;1.10;;
6987;SDS011;3534;49.960;8.018;2022-08-01T01:13:13;3.10;;;1.00;;
6987;SDS011;3534;49.960;8.018;2022-08-01T01:15:47;1.30;;;0.90;;
6987;SDS011;3534;49.960;8.018;2022-08-01T01:18:22;2.30;;;1.00;;
6987;SDS011;3534;49.960;8.018;2022-08-01T01:20:52;1.10;;;1.00;;
6987;SDS011;3534;49.960;8.018;2022-08-01T01:23:32;1.03;;;0.80;;
6987;SDS011;3534;49.960;8.018;2022-08-01T01:26:20;1.20;;;1.10;;
6987;SDS011;3534;49.960;8.018;2022-08-01T01:28:58;6.37;;;3.63;;
6987;SDS011;3534;49.960;8.018;2022-08-01T01:31:30;6.40;;;3.70;;
6987;SDS011;3534;49.960;8.018;2022-08-01T01:33:59;2.17;;;1.77;;
6987;SDS011;3534;49.960;8.018;2022-08-01T01:36:27;3.60;;;2.70;;
6987;SDS011;3534;49.960;8.018;2022-08-01T01:38:56;3.40;;;2.10;;
6987;SDS011;3534;49.960;8.018;2022-08-01T01:41:23;1.90;;;1.70;;
6987;SDS011;3534;49.960;8.018;2022-08-01T01:43:50;2.57;;;1.20;;
6987;SDS011;3534;49.960;8.018;2022-08-01T01:46:20;1.57;;;1.47;;
6987;SDS011;3534;49.960;8.018;2022-08-01T01:48:49;1.43;;;1.30;;
6987;SDS011;3534;49.960;8.018;2022-08-01T01:51:18;1.50;;;1.00;;
6987;SDS011;3534;49.960;8.018;2022-08-01T01:53:48;1.90;;;0.93;;
6987;SDS011;3534;49.960;8.018;2022-08-01T01:56:17;1.50;;;1.23;;
6987;SDS011;3534;49.960;8.018;2022-08-01T01:58:45;3.23;;;1.20;;
6987;SDS011;3534;49.960;8.018;2022-08-01T02:01:18;3.23;;;1.07;;
6987;SDS011;3534;49.960;8.018;2022-08-01T02:03:47;2.57;;;1.13;;
6987;SDS011;3534;49.960;8.018;2022-08-01T02:06:15;3.33;;;1.00;;
6987;SDS011;3534;49.960;8.018;2022-08-01T02:08:42;1.17;;;1.07;;
6987;SDS011;3534;49.960;8.018;2022-08-01T02:11:11;1.10;;;0.90;;
6987;SDS011;3534;49.960;8.018;2022-08-01T02:13:48;2.40;;;0.90;;
6987;SDS011;3534;49.960;8.018;2022-08-01T02:16:21;2.73;;;0.93;;
6987;SDS011;3534;49.960;8.018;2022-08-01T02:18:50;2.13;;;1.10;;
6987;SDS011;3534;49.960;8.018;2022-08-01T02:21:19;1.73;;;1.20;;
6987;SDS011;3534;49.960;8.018;2022-08-01T02:23:49;1.83;;;1.10;;
6987;SDS011;3534;49.960;8.018;2022-08-01T02:26:18;1.73;;;1.20;;
6987;SDS011;3534;49.960;8.018;2022-08-01T02:28:47;1.30;;;0.97;;
6987;SDS011;3534;49.960;8.018;2022-08-01T02:31:17;3.33;;;1.37;;
6987;SDS011;3534;49.960;8.018;2022-08-01T02:33:50;3.17;;;1.20;;
6987;SDS011;3534;49.960;8.018;2022-08-01T02:36:22;5.27;;;1.40;;
6987;SDS011;3534;49.960;8.018;2022-08-01T02:38:51;3.53;;;1.20;;
6987;SDS011;3534;49.960;8.018;2022-08-01T02:41:20;2.10;;;0.93;;
6987;SDS011;3534;49.960;8.018;2022-08-01T02:43:49;2.43;;;1.00;;
6987;SDS011;3534;49.960;8.018;2022-08-01T02:46:21;1.57;;;0.80;;
6987;SDS011;3534;49.960;8.018;2022-08-01T02:48:53;3.63;;;1.37;;
6987;SDS011;3534;49.960;8.018;2022-08-01T02:51:24;6.27;;;1.70;;
6987;SDS011;3534;49.960;8.018;2022-08-01T02:53:52;3.13;;;1.13;;
6987;SDS011;3534;49.960;8.018;2022-08-01T02:56:20;1.17;;;0.90;;
6987;SDS011;3534;49.960;8.018;2022-08-01T02:58:48;1.20;;;1.00;;
6987;SDS011;3534;49.960;8.018;2022-08-01T03:01:17;1.30;;;1.13;;
6987;SDS011;3534;49.960;8.018;2022-08-01T03:03:44;1.10;;;0.80;;
6987;SDS011;3534;49.960;8.018;2022-08-01T03:06:13;1.20;;;1.10;;
6987;SDS011;3534;49.960;8.018;2022-08-01T03:08:41;1.47;;;1.37;;
6987;SDS011;3534;49.960;8.018;2022-08-01T03:11:09;2.03;;;1.20;;
6987;SDS011;3534;49.960;8.018;2022-08-01T03:13:37;2.97;;;1.10;;
6987;SDS011;3534;49.960;8.018;2022-08-01T03:16:06;1.10;;;0.97;;
6987;SDS011;3534;49.960;8.018;2022-08-01T03:18:34;3.47;;;1.07;;
6987;SDS011;3534;49.960;8.018;2022-08-01T03:21:02;1.53;;;1.30;;
6987;SDS011;3534;49.960;8.018;2022-08-01T03:23:32;4.50;;;1.40;;
6987;SDS011;3534;49.960;8.018;2022-08-01T03:25:59;2.20;;;1.00;;
6987;SDS011;3534;49.960;8.018;2022-08-01T03:28:28;1.10;;;1.00;;
6987;SDS011;3534;49.960;8.018;2022-08-01T03:30:56;1.13;;;0.97;;
6987;SDS011;3534;49.960;8.018;2022-08-01T03:33:24;1.23;;;1.10;;
6987;SDS011;3534;49.960;8.018;2022-08-01T03:35:52;2.10;;;1.07;;
6987;SDS011;3534;49.960;8.018;2022-08-01T03:38:21;3.00;;;1.10;;
6987;SDS011;3534;49.960;8.018;2022-08-01T03:40:52;2.37;;;1.30;;
6987;SDS011;3534;49.960;8.018;2022-08-01T03:43:23;3.83;;;1.43;;
6987;SDS011;3534;49.960;8.018;2022-08-01T03:45:57;2.50;;;1.00;;
6987;SDS011;3534;49.960;8.018;2022-08-01T03:48:29;1.67;;;1.00;;
6987;SDS011;3534;49.960;8.018;2022-08-01T03:51:01;1.30;;;1.10;;
6987;SDS011;3534;49.960;8.018;2022-08-01T03:53:30;2.23;;;1.40;;
6987;SDS011;3534;49.960;8.018;2022-08-01T03:56:00;1.70;;;1.10;;
6987;SDS011;3534;49.960;8.018;2022-08-01T03:58:27;3.43;;;1.30;;
6987;SDS011;3534;49.960;8.018;2022-08-01T04:00:55;1.90;;;1.43;;
6987;SDS011;3534;49.960;8.018;2022-08-01T04:03:23;2.30;;;1.20;;
6987;SDS011;3534;49.960;8.018;2022-08-01T04:05:50;1.70;;;1.00;;
6987;SDS011;3534;49.960;8.018;2022-08-01T04:08:17;1.60;;;1.03;;
6987;SDS011;3534;49.960;8.018;2022-08-01T04:10:43;2.30;;;1.20;;
6987;SDS011;3534;49.960;8.018;2022-08-01T04:13:11;1.77;;;1.00;;
6987;SDS011;3534;49.960;8.018;2022-08-01T04:15:38;2.77;;;1.27;;
6987;SDS011;3534;49.960;8.018;2022-08-01T04:18:05;4.63;;;1.30;;
6987;SDS011;3534;49.960;8.018;2022-08-01T04:20:32;2.90;;;1.43;;
6987;SDS011;3534;49.960;8.018;2022-08-01T04:22:58;5.80;;;1.30;;
6987;SDS011;3534;49.960;8.018;2022-08-01T04:25:26;1.47;;;1.33;;
6987;SDS011;3534;49.960;8.018;2022-08-01T04:27:58;3.07;;;1.40;;
6987;SDS011;3534;49.960;8.018;2022-08-01T04:30:31;1.57;;;1.23;;
6987;SDS011;3534;49.960;8.018;2022-08-01T04:33:01;1.70;;;1.10;;
6987;SDS011;3534;49.960;8.018;2022-08-01T04:35:32;2.63;;;1.83;;
6987;SDS011;3534;49.960;8.018;2022-08-01T04:38:02;1.40;;;1.30;;
6987;SDS011;3534;49.960;8.018;2022-08-01T04:40:30;1.63;;;1.10;;
6987;SDS011;3534;49.960;8.018;2022-08-01T04:42:58;1.27;;;1.17;;
6987;SDS011;3534;49.960;8.018;2022-08-01T04:45:25;2.47;;;1.13;;
6987;SDS011;3534;49.960;8.018;2022-08-01T04:47:54;2.87;;;1.30;;
6987;SDS011;3534;49.960;8.018;2022-08-01T04:50:21;1.53;;;1.43;;
6987;SDS011;3534;49.960;8.018;2022-08-01T04:52:49;2.43;;;1.40;;
6987;SDS011;3534;49.960;8.018;2022-08-01T04:55:16;3.37;;;1.30;;
6987;SDS011;3534;49.960;8.018;2022-08-01T04:57:43;2.60;;;1.73;;
6987;SDS011;3534;49.960;8.018;2022-08-01T05:00:12;2.30;;;1.30;;
6987;SDS011;3534;49.960;8.018;2022-08-01T05:02:41;2.60;;;1.40;;
6987;SDS011;3534;49.960;8.018;2022-08-01T05:05:09;3.30;;;1.40;;
6987;SDS011;3534;49.960;8.018;2022-08-01T05:10:05;1.60;;;1.13;;
6987;SDS011;3534;49.960;8.018;2022-08-01T05:12:32;1.87;;;1.30;;
6987;SDS011;3534;49.960;8.018;2022-08-01T05:14:59;1.30;;;1.20;;
6987;SDS011;3534;49.960;8.018;2022-08-01T05:17:26;1.47;;;1.03;;
6987;SDS011;3534;49.960;8.018;2022-08-01T05:19:53;1.40;;;1.07;;
6987;SDS011;3534;49.960;8.018;2022-08-01T05:22:21;4.27;;;2.37;;
6987;SDS011;3534;49.960;8.018;2022-08-01T05:24:50;2.50;;;1.30;;
6987;SDS011;3534;49.960;8.018;2022-08-01T05:27:17;2.60;;;1.60;;
6987;SDS011;3534;49.960;8.018;2022-08-01T05:29:44;1.20;;;1.10;;
6987;SDS011;3534;49.960;8.018;2022-08-01T05:32:11;1.40;;;1.23;;
6987;SDS011;3534;49.960;8.018;2022-08-01T05:34:37;2.33;;;1.40;;
6987;SDS011;3534;49.960;8.018;2022-08-01T05:37:04;2.97;;;1.60;;
6987;SDS011;3534;49.960;8.018;2022-08-01T05:39:33;1.30;;;1.20;;
6987;SDS011;3534;49.960;8.018;2022-08-01T05:42:00;1.97;;;1.10;;
6987;SDS011;3534;49.960;8.018;2022-08-01T05:44:27;2.10;;;1.40;;
6987;SDS011;3534;49.960;8.018;2022-08-01T05:46:53;1.83;;;1.10;;
6987;SDS011;3534;49.960;8.018;2022-08-01T05:49:20;2.80;;;1.57;;
6987;SDS011;3534;49.960;8.018;2022-08-01T05:51:47;1.60;;;1.00;;
6987;SDS011;3534;49.960;8.018;2022-08-01T05:54:14;1.70;;;1.10;;
6987;SDS011;3534;49.960;8.018;2022-08-01T05:56:42;3.17;;;2.40;;
6987;SDS011;3534;49.960;8.018;2022-08-01T05:59:09;2.80;;;1.40;;
6987;SDS011;3534;49.960;8.018;2022-08-01T06:01:35;1.70;;;1.13;;
6987;SDS011;3534;49.960;8.018;2022-08-01T06:04:02;2.37;;;1.23;;
6987;SDS011;3534;49.960;8.018;2022-08-01T06:06:29;1.30;;;1.20;;
6987;SDS011;3534;49.960;8.018;2022-08-01T06:08:56;1.70;;;1.20;;
6987;SDS011;3534;49.960;8.018;2022-08-01T06:11:22;3.47;;;1.27;;
6987;SDS011;3534;49.960;8.018;2022-08-01T06:13:50;2.00;;;1.10;;
6987;SDS011;3534;49.960;8.018;2022-08-01T06:16:18;1.63;;;1.20;;
6987;SDS011;3534;49.960;8.018;2022-08-01T06:18:45;1.77;;;1.20;;
6987;SDS011;3534;49.960;8.018;2022-08-01T06:21:11;2.27;;;1.60;;
6987;SDS011;3534;49.960;8.018;2022-08-01T06:23:38;2.00;;;1.57;;
6987;SDS011;3534;49.960;8.018;2022-08-01T06:26:06;4.00;;;1.40;;
6987;SDS011;3534;49.960;8.018;2022-08-01T06:28:33;2.03;;;1.27;;
6987;SDS011;3534;49.960;8.018;2022-08-01T06:31:01;1.57;;;1.30;;
6987;SDS011;3534;49.960;8.018;2022-08-01T06:33:28;1.67;;;1.57;;
6987;SDS011;3534;49.960;8.018;2022-08-01T06:35:54;1.37;;;1.27;;
6987;SDS011;3534;49.960;8.018;2022-08-01T06:38:21;1.13;;;1.03;;
6987;SDS011;3534;49.960;8.018;2022-08-01T06:40:49;2.80;;;1.43;;
6987;SDS011;3534;49.960;8.018;2022-08-01T06:43:16;2.60;;;1.40;;
6987;SDS011;3534;49.960;8.018;2022-08-01T06:45:43;3.90;;;1.53;;
6987;SDS011;3534;49.960;8.018;2022-08-01T06:48:11;1.70;;;1.50;;
6987;SDS011;3534;49.960;8.018;2022-08-01T06:50:38;2.23;;;1.50;;
6987;SDS011;3534;49.960;8.018;2022-08-01T06:53:05;1.47;;;1.37;;
6987;SDS011;3534;49.960;8.018;2022-08-01T06:55:32;7.50;;;1.57;;
6987;SDS011;3534;49.960;8.018;2022-08-01T06:57:58;2.00;;;1.50;;
6987;SDS011;3534;49.960;8.018;2022-08-01T07:00:26;2.73;;;1.80;;
6987;SDS011;3534;49.960;8.018;2022-08-01T07:02:53;1.70;;;1.37;;
6987;SDS011;3534;49.960;8.018;2022-08-01T07:05:23;1.90;;;1.50;;
6987;SDS011;3534;49.960;8.018;2022-08-01T07:07:50;1.57;;;1.30;;
6987;SDS011;3534;49.960;8.018;2022-08-01T07:10:16;1.67;;;1.57;;
6987;SDS011;3534;49.960;8.018;2022-08-01T07:12:44;1.67;;;1.23;;
6987;SDS011;3534;49.960;8.018;2022-08-01T07:15:11;2.20;;;2.00;;
6987;SDS011;3534;49.960;8.018;2022-08-01T07:17:37;3.93;;;1.60;;
6987;SDS011;3534;49.960;8.018;2022-08-01T07:20:05;1.57;;;1.40;;
6987;SDS011;3534;49.960;8.018;2022-08-01T07:22:35;1.80;;;1.43;;
6987;SDS011;3534;49.960;8.018;2022-08-01T07:25:02;2.20;;;2.00;;
6987;SDS011;3534;49.960;8.018;2022-08-01T07:27:29;4.77;;;3.50;;
6987;SDS011;3534;49.960;8.018;2022-08-01T07:29:56;6.40;;;4.10;;
6987;SDS011;3534;49.960;8.018;2022-08-01T07:32:23;1.80;;;1.70;;
6987;SDS011;3534;49.960;8.018;2022-08-01T07:34:50;1.77;;;1.60;;
6987;SDS011;3534;49.960;8.018;2022-08-01T07:37:16;1.83;;;1.70;;
6987;SDS011;3534;49.960;8.018;2022-08-01T07:39:44;3.10;;;1.73;;
6987;SDS011;3534;49.960;8.018;2022-08-01T07:42:11;2.60;;;2.00;;
6987;SDS011;3534;49.960;8.018;2022-08-01T07:44:38;2.00;;;1.80;;
6987;SDS011;3534;49.960;8.018;2022-08-01T07:47:05;2.10;;;1.80;;
6987;SDS011;3534;49.960;8.018;2022-08-01T07:49:32;2.10;;;1.80;;
6987;SDS011;3534;49.960;8.018;2022-08-01T07:51:59;2.43;;;2.13;;
6987;SDS011;3534;49.960;8.018;2022-08-01T07:54:25;6.43;;;2.37;;
6987;SDS011;3534;49.960;8.018;2022-08-01T07:56:54;3.97;;;2.30;;
6987;SDS011;3534;49.960;8.018;2022-08-01T07:59:20;3.60;;;1.90;;
6987;SDS011;3534;49.960;8.018;2022-08-01T08:01:48;2.30;;;2.10;;
6987;SDS011;3534;49.960;8.018;2022-08-01T08:04:15;4.13;;;1.87;;
6987;SDS011;3534;49.960;8.018;2022-08-01T08:06:42;2.20;;;1.93;;
6987;SDS011;3534;49.960;8.018;2022-08-01T08:09:09;2.17;;;1.77;;
6987;SDS011;3534;49.960;8.018;2022-08-01T08:11:36;2.10;;;1.90;;
6987;SDS011;3534;49.960;8.018;2022-08-01T08:14:04;2.17;;;1.97;;
6987;SDS011;3534;49.960;8.018;2022-08-01T08:16:30;2.17;;;1.97;;
6987;SDS011;3534;49.960;8.018;2022-08-01T08:18:57;2.23;;;1.70;;
6987;SDS011;3534;49.960;8.018;2022-08-01T08:21:24;4.00;;;2.77;;
6987;SDS011;3534;49.960;8.018;2022-08-01T08:23:51;4.83;;;2.13;;
6987;SDS011;3534;49.960;8.018;2022-08-01T08:26:35;3.57;;;2.20;;
6987;SDS011;3534;49.960;8.018;2022-08-01T08:29:04;2.27;;;2.07;;
6987;SDS011;3534;49.960;8.018;2022-08-01T08:31:30;2.27;;;2.10;;
6987;SDS011;3534;49.960;8.018;2022-08-01T08:33:57;2.80;;;2.03;;
6987;SDS011;3534;49.960;8.018;2022-08-01T08:36:24;3.00;;;2.30;;
6987;SDS011;3534;49.960;8.018;2022-08-01T08:38:51;3.60;;;2.20;;
6987;SDS011;3534;49.960;8.018;2022-08-01T08:41:17;2.07;;;1.70;;
6987;SDS011;3534;49.960;8.018;2022-08-01T08:43:44;2.20;;;2.00;;
6987;SDS011;3534;49.960;8.018;2022-08-01T08:46:13;1.90;;;1.80;;
6987;SDS011;3534;49.960;8.018;2022-08-01T08:48:41;1.70;;;1.60;;
6987;SDS011;3534;49.960;8.018;2022-08-01T08:51:08;3.30;;;2.20;;
6987;SDS011;3534;49.960;8.018;2022-08-01T08:53:37;3.87;;;2.20;;
6987;SDS011;3534;49.960;8.018;2022-08-01T08:56:08;2.90;;;2.30;;
6987;SDS011;3534;49.960;8.018;2022-08-01T08:58:36;2.37;;;2.17;;
6987;SDS011;3534;49.960;8.018;2022-08-01T09:01:04;3.33;;;2.40;;
6987;SDS011;3534;49.960;8.018;2022-08-01T09:03:33;2.47;;;2.27;;
6987;SDS011;3534;49.960;8.018;2022-08-01T09:06:00;2.50;;;2.30;;
6987;SDS011;3534;49.960;8.018;2022-08-01T09:08:27;3.33;;;2.17;;
6987;SDS011;3534;49.960;8.018;2022-08-01T09:10:54;2.73;;;2.53;;
6987;SDS011;3534;49.960;8.018;2022-08-01T09:13:21;6.27;;;3.37;;
6987;SDS011;3534;49.960;8.018;2022-08-01T09:15:48;2.80;;;2.60;;
6987;SDS011;3534;49.960;8.018;2022-08-01T09:18:28;4.17;;;2.23;;
6987;SDS011;3534;49.960;8.018;2022-08-01T09:23:52;8.00;;;2.60;;
6987;SDS011;3534;49.960;8.018;2022-08-01T09:26:27;2.97;;;2.63;;
6987;SDS011;3534;49.960;8.018;2022-08-01T09:28:56;3.67;;;2.80;;
6987;SDS011;3534;49.960;8.018;2022-08-01T09:31:24;3.87;;;2.70;;
6987;SDS011;3534;49.960;8.018;2022-08-01T09:33:53;4.10;;;3.70;;
6987;SDS011;3534;49.960;8.018;2022-08-01T09:36:21;5.00;;;2.40;;
6987;SDS011;3534;49.960;8.018;2022-08-01T09:38:52;3.00;;;2.33;;
6987;SDS011;3534;49.960;8.018;2022-08-01T09:41:28;3.40;;;2.60;;
6987;SDS011;3534;49.960;8.018;2022-08-01T09:43:56;2.63;;;2.40;;
6987;SDS011;3534;49.960;8.018;2022-08-01T09:46:24;3.43;;;2.40;;
6987;SDS011;3534;49.960;8.018;2022-08-01T09:48:54;3.13;;;2.70;;
6987;SDS011;3534;49.960;8.018;2022-08-01T09:51:29;4.50;;;3.40;;
6987;SDS011;3534;49.960;8.018;2022-08-01T09:53:59;2.70;;;2.20;;
6987;SDS011;3534;49.960;8.018;2022-08-01T09:56:35;3.30;;;2.50;;
6987;SDS011;3534;49.960;8.018;2022-08-01T09:59:03;2.27;;;2.07;;
6987;SDS011;3534;49.960;8.018;2022-08-01T10:01:41;2.87;;;2.63;;
6987;SDS011;3534;49.960;8.018;2022-08-01T10:04:10;2.33;;;2.20;;
6987;SDS011;3534;49.960;8.018;2022-08-01T10:06:39;2.60;;;2.40;;
6987;SDS011;3534;49.960;8.018;2022-08-01T10:09:09;2.77;;;2.53;;
6987;SDS011;3534;49.960;8.018;2022-08-01T10:11:37;3.10;;;2.00;;
6987;SDS011;3534;49.960;8.018;2022-08-01T10:14:06;3.00;;;2.57;;
6987;SDS011;3534;49.960;8.018;2022-08-01T10:16:34;2.87;;;2.30;;
6987;SDS011;3534;49.960;8.018;2022-08-01T10:19:02;2.90;;;2.30;;
6987;SDS011;3534;49.960;8.018;2022-08-01T10:21:32;3.93;;;2.30;;
6987;SDS011;3534;49.960;8.018;2022-08-01T10:23:59;4.60;;;2.60;;
6987;SDS011;3534;49.960;8.018;2022-08-01T10:26:32;3.20;;;2.70;;
6987;SDS011;3534;49.960;8.018;2022-08-01T10:28:59;2.80;;;2.57;;
6987;SDS011;3534;49.960;8.018;2022-08-01T10:31:28;3.17;;;2.30;;
6987;SDS011;3534;49.960;8.018;2022-08-01T10:33:58;4.57;;;3.27;;
6987;SDS011;3534;49.960;8.018;2022-08-01T10:36:25;3.90;;;2.90;;
6987;SDS011;3534;49.960;8.018;2022-08-01T10:38:53;4.90;;;2.60;;
6987;SDS011;3534;49.960;8.018;2022-08-01T10:41:20;2.90;;;2.40;;
6987;SDS011;3534;49.960;8.018;2022-08-01T10:43:49;2.77;;;2.57;;
6987;SDS011;3534;49.960;8.018;2022-08-01T10:46:17;2.60;;;2.40;;
6987;SDS011;3534;49.960;8.018;2022-08-01T10:48:47;2.43;;;2.23;;
6987;SDS011;3534;49.960;8.018;2022-08-01T10:51:20;3.07;;;2.47;;
6987;SDS011;3534;49.960;8.018;2022-08-01T10:53:47;3.07;;;2.87;;
6987;SDS011;3534;49.960;8.018;2022-08-01T10:56:16;2.10;;;1.90;;
6987;SDS011;3534;49.960;8.018;2022-08-01T10:58:43;3.73;;;1.90;;
6987;SDS011;3534;49.960;8.018;2022-08-01T11:01:14;2.30;;;2.13;;
6987;SDS011;3534;49.960;8.018;2022-08-01T11:03:55;2.80;;;2.30;;
6987;SDS011;3534;49.960;8.018;2022-08-01T11:06:35;4.73;;;1.90;;
6987;SDS011;3534;49.960;8.018;2022-08-01T11:09:15;7.13;;;2.93;;
6987;SDS011;3534;49.960;8.018;2022-08-01T11:12:05;3.40;;;2.40;;
6987;SDS011;3534;49.960;8.018;2022-08-01T11:14:43;1.90;;;1.70;;
6987;SDS011;3534;49.960;8.018;2022-08-01T11:17:42;2.57;;;2.37;;
6987;SDS011;3534;49.960;8.018;2022-08-01T11:20:14;2.80;;;2.03;;
6987;SDS011;3534;49.960;8.018;2022-08-01T11:26:06;2.33;;;2.13;;
6987;SDS011;3534;49.960;8.018;2022-08-01T11:28:41;2.67;;;1.97;;
6987;SDS011;3534;49.960;8.018;2022-08-01T11:31:28;2.30;;;2.10;;
6987;SDS011;3534;49.960;8.018;2022-08-01T11:33:58;2.07;;;1.87;;
6987;SDS011;3534;49.960;8.018;2022-08-01T11:36:25;2.57;;;2.27;;
6987;SDS011;3534;49.960;8.018;2022-08-01T11:41:42;5.70;;;2.23;;
6987;SDS011;3534;49.960;8.018;2022-08-01T11:44:10;1.70;;;1.60;;
6987;SDS011;3534;49.960;8.018;2022-08-01T11:46:45;2.70;;;2.13;;
6987;SDS011;3534;49.960;8.018;2022-08-01T11:52:13;2.10;;;1.60;;
6987;SDS011;3534;49.960;8.018;2022-08-01T11:54:42;2.10;;;1.83;;
6987;SDS011;3534;49.960;8.018;2022-08-01T11:57:11;2.43;;;1.87;;
6987;SDS011;3534;49.960;8.018;2022-08-01T11:59:40;1.97;;;1.80;;
6987;SDS011;3534;49.960;8.018;2022-08-01T12:02:15;1.73;;;1.40;;
6987;SDS011;3534;49.960;8.018;2022-08-01T12:04:48;2.13;;;1.33;;
6987;SDS011;3534;49.960;8.018;2022-08-01T12:07:16;1.50;;;1.40;;
6987;SDS011;3534;49.960;8.018;2022-08-01T12:09:44;1.70;;;1.60;;
6987;SDS011;3534;49.960;8.018;2022-08-01T12:12:14;2.17;;;1.80;;
6987;SDS011;3534;49.960;8.018;2022-08-01T12:14:42;3.83;;;1.57;;
6987;SDS011;3534;49.960;8.018;2022-08-01T12:17:10;4.10;;;1.37;;
6987;SDS011;3534;49.960;8.018;2022-08-01T12:19:37;1.40;;;1.30;;
6987;SDS011;3534;49.960;8.018;2022-08-01T12:22:11;1.20;;;1.10;;
6987;SDS011;3534;49.960;8.018;2022-08-01T12:24:39;1.17;;;1.00;;
6987;SDS011;3534;49.960;8.018;2022-08-01T12:27:07;4.80;;;1.27;;
6987;SDS011;3534;49.960;8.018;2022-08-01T12:29:36;1.47;;;1.17;;
6987;SDS011;3534;49.960;8.018;2022-08-01T12:32:13;2.40;;;1.17;;
6987;SDS011;3534;49.960;8.018;2022-08-01T12:34:47;1.10;;;1.00;;
6987;SDS011;3534;49.960;8.018;2022-08-01T12:37:16;1.57;;;1.20;;
6987;SDS011;3534;49.960;8.018;2022-08-01T12:39:44;1.53;;;1.13;;
6987;SDS011;3534;49.960;8.018;2022-08-01T12:42:11;3.70;;;1.20;;
6987;SDS011;3534;49.960;8.018;2022-08-01T12:44:38;1.73;;;1.23;;
6987;SDS011;3534;49.960;8.018;2022-08-01T12:47:06;0.90;;;0.90;;
6987;SDS011;3534;49.960;8.018;2022-08-01T12:49:36;3.03;;;1.40;;
6987;SDS011;3534;49.960;8.018;2022-08-01T12:52:04;5.40;;;1.03;;
6987;SDS011;3534;49.960;8.018;2022-08-01T12:54:44;1.20;;;1.10;;
6987;SDS011;3534;49.960;8.018;2022-08-01T12:57:30;1.57;;;1.10;;
6987;SDS011;3534;49.960;8.018;2022-08-01T13:00:10;1.40;;;1.30;;
6987;SDS011;3534;49.960;8.018;2022-08-01T13:02:42;1.97;;;1.30;;
6987;SDS011;3534;49.960;8.018;2022-08-01T13:05:10;1.87;;;1.30;;
6987;SDS011;3534;49.960;8.018;2022-08-01T13:07:39;1.10;;;1.00;;
6987;SDS011;3534;49.960;8.018;2022-08-01T13:10:10;1.50;;;1.20;;
6987;SDS011;3534;49.960;8.018;2022-08-01T13:12:38;1.20;;;1.10;;
6987;SDS011;3534;49.960;8.018;2022-08-01T13:15:17;3.70;;;1.27;;
6987;SDS011;3534;49.960;8.018;2022-08-01T13:17:53;1.50;;;1.10;;
6987;SDS011;3534;49.960;8.018;2022-08-01T13:20:30;1.10;;;1.00;;
6987;SDS011;3534;49.960;8.018;2022-08-01T13:23:11;1.97;;;1.77;;
6987;SDS011;3534;49.960;8.018;2022-08-01T13:25:50;1.07;;;0.97;;
6987;SDS011;3534;49.960;8.018;2022-08-01T13:28:19;1.63;;;1.53;;
6987;SDS011;3534;49.960;8.018;2022-08-01T13:30:51;2.13;;;1.40;;
6987;SDS011;3534;49.960;8.018;2022-08-01T13:33:19;1.37;;;1.27;;
6987;SDS011;3534;49.960;8.018;2022-08-01T13:35:45;1.60;;;1.43;;
6987;SDS011;3534;49.960;8.018;2022-08-01T13:38:12;2.23;;;1.60;;
6987;SDS011;3534;49.960;8.018;2022-08-01T13:40:39;3.20;;;1.80;;
6987;SDS011;3534;49.960;8.018;2022-08-01T13:43:07;4.53;;;2.77;;
6987;SDS011;3534;49.960;8.018;2022-08-01T13:45:34;2.17;;;1.60;;
6987;SDS011;3534;49.960;8.018;2022-08-01T13:48:00;2.90;;;2.63;;
6987;SDS011;3534;49.960;8.018;2022-08-01T13:50:27;2.97;;;1.80;;
6987;SDS011;3534;49.960;8.018;2022-08-01T13:52:54;2.23;;;1.93;;
6987;SDS011;3534;49.960;8.018;2022-08-01T13:55:20;1.60;;;1.50;;
6987;SDS011;3534;49.960;8.018;2022-08-01T13:57:47;1.40;;;1.30;;
6987;SDS011;3534;49.960;8.018;2022-08-01T14:00:16;2.67;;;1.63;;
6987;SDS011;3534;49.960;8.018;2022-08-01T14:02:43;2.47;;;1.77;;
6987;SDS011;3534;49.960;8.018;2022-08-01T14:05:10;1.60;;;1.50;;
6987;SDS011;3534;49.960;8.018;2022-08-01T14:07:36;2.00;;;1.57;;
6987;SDS011;3534;49.960;8.018;2022-08-01T14:10:03;3.53;;;1.43;;
6987;SDS011;3534;49.960;8.018;2022-08-01T14:12:30;2.30;;;2.10;;
6987;SDS011;3534;49.960;8.018;2022-08-01T14:14:57;1.50;;;1.40;;
6987;SDS011;3534;49.960;8.018;2022-08-01T14:17:25;4.37;;;1.73;;
6987;SDS011;3534;49.960;8.018;2022-08-01T14:19:52;3.30;;;3.00;;
6987;SDS011;3534;49.960;8.018;2022-08-01T14:22:21;3.13;;;2.83;;
6987;SDS011;3534;49.960;8.018;2022-08-01T14:24:48;3.17;;;2.50;;
6987;SDS011;3534;49.960;8.018;2022-08-01T14:27:14;5.47;;;2.73;;
6987;SDS011;3534;49.960;8.018;2022-08-01T14:29:41;2.90;;;2.70;;
6987;SDS011;3534;49.960;8.018;2022-08-01T14:32:08;14.20;;;2.80;;
6987;SDS011;3534;49.960;8.018;2022-08-01T14:34:36;2.87;;;2.63;;
6987;SDS011;3534;49.960;8.018;2022-08-01T14:37:02;3.63;;;3.30;;
6987;SDS011;3534;49.960;8.018;2022-08-01T14:39:29;5.77;;;2.90;;
6987;SDS011;3534;49.960;8.018;2022-08-01T14:41:56;2.67;;;2.47;;
6987;SDS011;3534;49.960;8.018;2022-08-01T14:44:23;7.97;;;2.80;;
6987;SDS011;3534;49.960;8.018;2022-08-01T14:46:49;3.20;;;2.40;;
6987;SDS011;3534;49.960;8.018;2022-08-01T14:49:16;5.70;;;2.60;;
6987;SDS011;3534;49.960;8.018;2022-08-01T14:51:44;6.77;;;2.30;;
6987;SDS011;3534;49.960;8.018;2022-08-01T14:54:11;3.70;;;2.60;;
6987;SDS011;3534;49.960;8.018;2022-08-01T14:56:38;3.13;;;2.23;;
6987;SDS011;3534;49.960;8.018;2022-08-01T14:59:05;2.37;;;2.17;;
6987;SDS011;3534;49.960;8.018;2022-08-01T15:01:31;6.30;;;2.30;;
6987;SDS011;3534;49.960;8.018;2022-08-01T15:03:58;3.50;;;2.03;;
6987;SDS011;3534;49.960;8.018;2022-08-01T15:06:25;2.40;;;2.20;;
6987;SDS011;3534;49.960;8.018;2022-08-01T15:08:53;2.20;;;2.00;;
6987;SDS011;3534;49.960;8.018;2022-08-01T15:11:20;4.53;;;1.90;;
6987;SDS011;3534;49.960;8.018;2022-08-01T15:13:46;4.30;;;2.10;;
6987;SDS011;3534;49.960;8.018;2022-08-01T15:16:35;2.70;;;2.50;;
6987;SDS011;3534;49.960;8.018;2022-08-01T15:19:01;2.70;;;1.87;;
6987;SDS011;3534;49.960;8.018;2022-08-01T15:21:28;3.63;;;2.43;;
6987;SDS011;3534;49.960;8.018;2022-08-01T15:23:56;2.57;;;2.13;;
6987;SDS011;3534;49.960;8.018;2022-08-01T15:26:23;5.90;;;2.50;;
6987;SDS011;3534;49.960;8.018;2022-08-01T15:28:50;2.63;;;2.00;;
6987;SDS011;3534;49.960;8.018;2022-08-01T15:31:17;2.27;;;2.10;;
6987;SDS011;3534;49.960;8.018;2022-08-01T15:33:44;2.20;;;2.10;;
6987;SDS011;3534;49.960;8.018;2022-08-01T15:36:10;5.47;;;2.30;;
6987;SDS011;3534;49.960;8.018;2022-08-01T15:38:37;3.47;;;2.43;;
6987;SDS011;3534;49.960;8.018;2022-08-01T15:41:05;2.87;;;2.67;;